Capitol Logistics 17




RCTP
Taiwan Taoyuan International Airport
Taipei, TW
PANC
Ted Stevens Anchorage International Airport
Anchorage, US

Route Details

Aircraft Information
Primary: Boeing 747-400BCF
Backup: Not Available
Route Data
Distance: 4065nm
Duration: 8h 30m
Recm'd Route: MOLKA M750 MIDAI M750 BUNGU Y81 SYOYU Y809 KAGIS A590 PABBA A590 PASRO A590 HAMND NEELL6
Origin Wx: RCTP 020630Z 30007KT 9999 FEW015 SCT040 BKN080 31/26 Q0997 NOSIG RMK A2945
Dest. Wx: PANC 020553Z 00000KT 10SM FEW180 18/12 A3009 RMK AO2 SLP190 T01830122 10228 20183 53000
Notes: